Time;durP1;ratioP1;P1;durP2;ratioP2;P2;SDS_P1;SDS_P2;PMS_P1;PMS_P2;Temp;Humidity;BMP_temperature;BMP_pressure;BME280_temperature;BME280_humidity;BME280_pressure;Samples;Min_cycle;Max_cycle;Signal;HPM_P1;HPM_P2
2023/07/15 00:01:24;;;;;;;11.50;5.30;;;;;;;;;;107168;1274;24013;-81
2023/07/15 00:03:52;;;;;;;12.50;6.00;;;;;;;;;;106897;1274;22517;-81
2023/07/15 00:06:20;;;;;;;13.50;6.00;;;;;;;;;;107015;1274;24386;-80
2023/07/15 00:08:48;;;;;;;12.40;5.70;;;;;;;;;;107017;1275;25275;-82
2023/07/15 00:11:18;;;;;;;12.70;5.50;;;;;;;;;;107000;1256;24354;-80
2023/07/15 00:13:47;;;;;;;10.40;5.70;;;;;;;;;;107031;1273;23023;-82
2023/07/15 00:16:13;;;;;;;10.50;5.70;;;;;;;;;;107101;1273;25212;-86
2023/07/15 00:18:43;;;;;;;10.30;5.70;;;;;;;;;;107036;1273;25290;-80
2023/07/15 00:21:20;;;;;;;11.30;5.30;;;;;;;;;;107154;1257;22608;-82
2023/07/15 00:23:48;;;;;;;12.50;6.10;;;;;;;;;;107107;1273;22640;-87
2023/07/15 00:26:15;;;;;;;13.50;6.40;;;;;;;;;;107054;1274;22536;-84
2023/07/15 00:28:42;;;;;;;11.50;6.20;;;;;;;;;;107202;1274;25450;-82
2023/07/15 00:31:11;;;;;;;11.70;6.10;;;;;;;;;;106930;1267;22524;-81
2023/07/15 00:33:38;;;;;;;11.30;6.00;;;;;;;;;;107179;1273;22570;-86
2023/07/15 00:36:05;;;;;;;13.80;6.30;;;;;;;;;;107192;1273;22655;-84
2023/07/15 00:38:35;;;;;;;11.00;5.90;;;;;;;;;;107175;1273;24243;-82
2023/07/15 00:41:24;;;;;;;11.00;6.00;;;;;;;;;;107052;1257;22524;-84
2023/07/15 00:44:01;;;;;;;13.60;6.00;;;;;;;;;;107040;1275;25220;-79
2023/07/15 00:46:49;;;;;;;10.40;5.20;;;;;;;;;;107035;1275;22601;-83
2023/07/15 00:49:21;;;;;;;9.20;5.30;;;;;;;;;;107001;1275;25252;-84
2023/07/15 00:51:56;;;;;;;10.80;6.10;;;;;;;;;;106849;1269;25572;-86
2023/07/15 00:54:23;;;;;;;11.20;5.70;;;;;;;;;;107160;1274;23126;-80
2023/07/15 00:56:51;;;;;;;12.70;6.50;;;;;;;;;;107092;1274;22543;-81
2023/07/15 00:59:17;;;;;;;11.60;6.30;;;;;;;;;;106927;1274;24291;-84
2023/07/15 01:01:46;;;;;;;12.40;6.10;;;;;;;;;;107038;1257;22526;-81
2023/07/15 01:04:13;;;;;;;10.20;5.60;;;;;;;;;;106890;1275;24406;-80
2023/07/15 01:06:45;;;;;;;11.50;6.10;;;;;;;;;;107138;1275;22523;-80
2023/07/15 01:09:12;;;;;;;12.30;5.80;;;;;;;;;;107057;1275;22993;-79
2023/07/15 01:11:39;;;;;;;12.40;5.80;;;;;;;;;;107021;1274;22524;-83
2023/07/15 01:14:09;;;;;;;11.30;5.90;;;;;;;;;;107119;1274;22518;-85
2023/07/15 01:16:36;;;;;;;11.80;5.50;;;;;;;;;;107051;1274;25264;-87
2023/07/15 01:19:10;;;;;;;9.40;6.00;;;;;;;;;;106950;1274;23250;-83
2023/07/15 01:21:37;;;;;;;10.90;6.30;;;;;;;;;;107069;1254;24301;-86
2023/07/15 01:24:07;;;;;;;10.60;5.70;;;;;;;;;;106880;1275;24190;-84
2023/07/15 01:26:34;;;;;;;10.60;5.50;;;;;;;;;;106795;1275;22532;-80
2023/07/15 01:29:03;;;;;;;10.80;6.30;;;;;;;;;;106715;1275;24925;-81
2023/07/15 01:31:31;;;;;;;11.30;6.10;;;;;;;;;;106854;1274;23643;-78
2023/07/15 01:33:58;;;;;;;11.40;5.40;;;;;;;;;;106964;1270;24255;-80
2023/07/15 01:36:26;;;;;;;10.20;5.10;;;;;;;;;;107060;1274;22517;-85
2023/07/15 01:38:59;;;;;;;9.80;5.10;;;;;;;;;;107107;1274;25223;-82
2023/07/15 01:41:26;;;;;;;10.00;4.90;;;;;;;;;;107090;1275;22533;-85
2023/07/15 01:43:53;;;;;;;9.70;5.50;;;;;;;;;;106999;1258;24248;-81
2023/07/15 01:46:25;;;;;;;9.40;4.80;;;;;;;;;;106964;1275;22540;-80
2023/07/15 01:48:53;;;;;;;9.60;5.10;;;;;;;;;;106908;1275;25328;-82
2023/07/15 01:51:19;;;;;;;10.40;4.80;;;;;;;;;;107069;1275;22527;-79
2023/07/15 01:53:49;;;;;;;10.20;5.10;;;;;;;;;;107139;1258;22526;-86
2023/07/15 01:56:23;;;;;;;10.30;4.90;;;;;;;;;;107039;1260;24200;-86
2023/07/15 01:58:49;;;;;;;8.90;4.90;;;;;;;;;;107241;1274;22511;-81
2023/07/15 02:01:16;;;;;;;7.70;4.20;;;;;;;;;;106937;1274;22526;-86
2023/07/15 02:03:46;;;;;;;9.30;4.70;;;;;;;;;;107075;1275;22517;-84
2023/07/15 02:06:13;;;;;;;9.00;4.20;;;;;;;;;;107179;1275;22507;-83
2023/07/15 02:08:41;;;;;;;9.00;4.80;;;;;;;;;;106932;1275;22773;-80
2023/07/15 02:11:08;;;;;;;10.60;4.70;;;;;;;;;;107131;1275;24183;-83
2023/07/15 02:13:36;;;;;;;8.80;4.20;;;;;;;;;;107210;1254;23902;-84
2023/07/15 02:16:05;;;;;;;9.20;4.50;;;;;;;;;;107134;1272;22520;-82
2023/07/15 02:18:32;;;;;;;8.60;4.80;;;;;;;;;;107197;1274;22893;-79
2023/07/15 02:20:59;;;;;;;9.80;5.20;;;;;;;;;;107030;1274;23907;-80
2023/07/15 02:23:28;;;;;;;9.90;4.60;;;;;;;;;;107126;1257;24191;-86
2023/07/15 02:25:55;;;;;;;9.40;4.50;;;;;;;;;;106948;1275;25271;-85
2023/07/15 02:28:26;;;;;;;9.30;4.90;;;;;;;;;;106940;1275;25415;-81
2023/07/15 02:30:55;;;;;;;8.30;4.70;;;;;;;;;;107146;1275;22534;-84
2023/07/15 02:33:23;;;;;;;10.20;5.00;;;;;;;;;;107192;1255;26594;-79
2023/07/15 02:35:50;;;;;;;10.00;4.90;;;;;;;;;;107136;1274;24218;-84
2023/07/15 02:38:38;;;;;;;9.50;4.80;;;;;;;;;;107219;1274;24352;-82
2023/07/15 02:41:04;;;;;;;9.30;4.60;;;;;;;;;;107165;1274;22598;-84
2023/07/15 02:43:34;;;;;;;8.50;4.60;;;;;;;;;;107142;1254;23892;-81
2023/07/15 02:46:05;;;;;;;10.40;5.00;;;;;;;;;;106970;1275;22526;-84
2023/07/15 02:48:35;;;;;;;8.00;4.80;;;;;;;;;;107122;1275;21712;-81
2023/07/15 02:51:05;;;;;;;8.10;4.50;;;;;;;;;;106978;1275;25328;-83
2023/07/15 02:53:37;;;;;;;10.00;4.50;;;;;;;;;;107117;1264;24196;-84
2023/07/15 02:56:04;;;;;;;7.50;3.90;;;;;;;;;;107303;1274;22529;-82
2023/07/15 02:58:31;;;;;;;9.30;4.70;;;;;;;;;;107190;1274;22530;-81
2023/07/15 03:00:58;;;;;;;10.30;5.30;;;;;;;;;;107192;1274;24481;-87
2023/07/15 03:03:27;;;;;;;12.20;5.60;;;;;;;;;;107172;1251;24211;-83
2023/07/15 03:05:54;;;;;;;9.30;4.90;;;;;;;;;;107083;1275;25805;-83
2023/07/15 03:08:21;;;;;;;9.70;5.70;;;;;;;;;;106946;1275;22529;-83
2023/07/15 03:10:49;;;;;;;11.50;5.40;;;;;;;;;;107173;1275;25353;-80
2023/07/15 03:13:18;;;;;;;10.50;5.10;;;;;;;;;;107150;1275;24252;-86
2023/07/15 03:15:48;;;;;;;10.30;4.80;;;;;;;;;;107195;1274;26468;-83
2023/07/15 03:18:35;;;;;;;9.90;4.50;;;;;;;;;;107156;1274;23088;-87
2023/07/15 03:21:02;;;;;;;10.90;4.50;;;;;;;;;;107207;1274;22520;-81
2023/07/15 03:23:29;;;;;;;12.30;5.10;;;;;;;;;;107186;1274;25343;-80
2023/07/15 03:26:05;;;;;;;10.40;5.00;;;;;;;;;;107097;1256;24257;-81
2023/07/15 03:28:33;;;;;;;11.20;5.10;;;;;;;;;;107009;1275;22609;-80
2023/07/15 03:31:00;;;;;;;7.90;4.50;;;;;;;;;;107094;1275;25353;-82
2023/07/15 03:33:27;;;;;;;8.90;4.90;;;;;;;;;;107076;1275;24247;-85
2023/07/15 03:35:58;;;;;;;11.30;5.30;;;;;;;;;;107213;1254;25343;-84
2023/07/15 03:38:25;;;;;;;10.20;5.00;;;;;;;;;;107200;1274;25492;-86
2023/07/15 03:40:54;;;;;;;10.00;4.30;;;;;;;;;;107218;1274;22518;-82
2023/07/15 03:43:21;;;;;;;10.20;4.60;;;;;;;;;;107079;1274;25370;-80
2023/07/15 03:45:48;;;;;;;7.70;3.40;;;;;;;;;;107097;1256;25346;-81
2023/07/15 03:48:15;;;;;;;7.10;3.80;;;;;;;;;;107148;1275;24186;-81
2023/07/15 03:50:43;;;;;;;12.70;4.60;;;;;;;;;;107047;1275;22527;-87
2023/07/15 03:53:13;;;;;;;11.20;4.40;;;;;;;;;;107124;1275;25265;-82
2023/07/15 03:55:40;;;;;;;11.80;4.20;;;;;;;;;;107224;1254;24409;-87
2023/07/15 03:58:08;;;;;;;9.30;4.50;;;;;;;;;;107210;1274;22520;-85
2023/07/15 04:00:42;;;;;;;9.70;3.90;;;;;;;;;;107226;1274;22567;-84
2023/07/15 04:03:09;;;;;;;10.00;4.30;;;;;;;;;;107203;1274;22541;-84
2023/07/15 04:05:36;;;;;;;8.70;3.50;;;;;;;;;;107183;1275;23901;-80
2023/07/15 04:08:09;;;;;;;10.00;4.10;;;;;;;;;;106974;1275;22518;-82
2023/07/15 04:10:36;;;;;;;9.40;3.40;;;;;;;;;;106955;1275;24229;-80
2023/07/15 04:13:15;;;;;;;11.10;3.90;;;;;;;;;;106980;1275;24210;-84
2023/07/15 04:15:42;;;;;;;6.70;3.10;;;;;;;;;;107036;1257;22754;-81
2023/07/15 04:18:15;;;;;;;8.30;3.60;;;;;;;;;;107163;1274;25220;-82
2023/07/15 04:20:43;;;;;;;7.70;3.30;;;;;;;;;;107227;1274;22524;-81
2023/07/15 04:23:10;;;;;;;10.90;3.60;;;;;;;;;;106958;1274;22525;-86
2023/07/15 04:25:38;;;;;;;12.50;4.20;;;;;;;;;;107179;1256;22524;-85
2023/07/15 04:28:10;;;;;;;9.20;4.00;;;;;;;;;;107171;1275;22541;-82
2023/07/15 04:30:39;;;;;;;8.60;3.50;;;;;;;;;;107123;1275;22520;-81
2023/07/15 04:33:07;;;;;;;10.00;3.70;;;;;;;;;;107223;1275;24218;-85
2023/07/15 04:35:34;;;;;;;11.30;3.80;;;;;;;;;;107136;1251;25530;-81
2023/07/15 04:38:01;;;;;;;10.30;3.80;;;;;;;;;;107240;1274;22520;-83
2023/07/15 04:40:27;;;;;;;8.60;3.90;;;;;;;;;;107142;1274;24249;-85
2023/07/15 04:43:02;;;;;;;7.50;3.70;;;;;;;;;;107143;1273;22640;-82
2023/07/15 04:45:29;;;;;;;9.60;3.70;;;;;;;;;;107226;1254;22533;-84
2023/07/15 04:47:56;;;;;;;9.90;3.70;;;;;;;;;;106999;1276;22467;-81
2023/07/15 04:50:23;;;;;;;11.40;4.40;;;;;;;;;;106884;1276;22520;-80
2023/07/15 04:52:50;;;;;;;11.00;4.20;;;;;;;;;;106902;1276;25321;-84
2023/07/15 04:55:18;;;;;;;8.30;3.50;;;;;;;;;;106962;1276;24196;-83
2023/07/15 04:57:44;;;;;;;9.70;3.80;;;;;;;;;;106980;1273;22521;-80
2023/07/15 05:00:11;;;;;;;7.70;3.40;;;;;;;;;;107011;1275;22529;-87
2023/07/15 05:02:38;;;;;;;9.20;3.90;;;;;;;;;;107073;1276;22574;-87
2023/07/15 05:05:08;;;;;;;9.90;4.00;;;;;;;;;;107138;1275;22511;-85
2023/07/15 05:07:34;;;;;;;10.60;3.70;;;;;;;;;;106972;1257;22526;-81
2023/07/15 05:10:01;;;;;;;10.30;3.30;;;;;;;;;;106899;1276;22543;-83
2023/07/15 05:12:28;;;;;;;10.30;3.60;;;;;;;;;;106955;1276;25357;-83
2023/07/15 05:14:55;;;;;;;9.30;3.50;;;;;;;;;;106929;1276;22547;-84
2023/07/15 05:17:22;;;;;;;8.90;3.30;;;;;;;;;;106950;1276;24377;-82
2023/07/15 05:19:49;;;;;;;9.70;3.30;;;;;;;;;;106949;1276;22523;-85
2023/07/15 05:22:18;;;;;;;10.20;3.80;;;;;;;;;;106911;1276;25284;-82
2023/07/15 05:24:45;;;;;;;10.90;3.40;;;;;;;;;;106935;1276;24324;-82
2023/07/15 05:27:15;;;;;;;8.10;3.60;;;;;;;;;;107041;1259;22562;-85
2023/07/15 05:29:41;;;;;;;10.00;3.40;;;;;;;;;;106950;1276;24359;-84
2023/07/15 05:32:08;;;;;;;9.10;3.30;;;;;;;;;;106924;1276;22523;-85
2023/07/15 05:34:35;;;;;;;10.60;3.40;;;;;;;;;;106886;1276;22530;-80
2023/07/15 05:37:03;;;;;;;8.50;3.60;;;;;;;;;;106914;1259;24992;-81
2023/07/15 05:39:30;;;;;;;9.90;3.50;;;;;;;;;;107116;1276;22536;-80
2023/07/15 05:41:59;;;;;;;9.50;3.50;;;;;;;;;;107108;1275;24318;-82
2023/07/15 05:44:25;;;;;;;8.10;3.00;;;;;;;;;;107086;1275;25377;-82
2023/07/15 05:46:52;;;;;;;9.70;3.10;;;;;;;;;;107544;1253;22578;-81
2023/07/15 05:49:19;;;;;;;9.70;2.70;;;;;;;;;;106965;1276;24165;-87
2023/07/15 05:51:55;;;;;;;11.80;3.60;;;;;;;;;;106907;1276;22577;-85
2023/07/15 05:54:22;;;;;;;10.10;3.60;;;;;;;;;;106927;1276;22540;-81
2023/07/15 05:56:49;;;;;;;7.70;3.60;;;;;;;;;;106919;1276;25441;-80
2023/07/15 05:59:16;;;;;;;11.40;3.20;;;;;;;;;;106833;1275;22532;-82
2023/07/15 06:01:43;;;;;;;7.70;3.20;;;;;;;;;;106966;1276;22523;-83
2023/07/15 06:04:10;;;;;;;11.80;3.90;;;;;;;;;;106957;1275;22520;-85
2023/07/15 06:06:37;;;;;;;7.80;3.00;;;;;;;;;;106898;1276;22493;-80
2023/07/15 06:09:04;;;;;;;8.90;3.10;;;;;;;;;;107069;1275;25345;-80
2023/07/15 06:11:31;;;;;;;10.00;3.30;;;;;;;;;;106986;1254;22602;-87
2023/07/15 06:14:00;;;;;;;9.70;3.40;;;;;;;;;;106935;1276;22524;-80
2023/07/15 06:16:27;;;;;;;9.10;3.40;;;;;;;;;;106975;1276;24288;-85
2023/07/15 06:18:56;;;;;;;9.20;2.90;;;;;;;;;;106891;1276;22572;-87
2023/07/15 06:21:23;;;;;;;7.80;3.10;;;;;;;;;;106942;1275;25369;-81
2023/07/15 06:23:50;;;;;;;9.00;3.10;;;;;;;;;;106929;1276;22534;-86
2023/07/15 06:26:22;;;;;;;7.00;2.90;;;;;;;;;;107120;1275;25223;-83
2023/07/15 06:29:02;;;;;;;8.60;3.30;;;;;;;;;;106992;1276;25227;-87
2023/07/15 06:31:30;;;;;;;11.20;3.40;;;;;;;;;;106965;1265;22485;-83
2023/07/15 06:33:57;;;;;;;7.20;2.70;;;;;;;;;;107007;1276;23113;-81
2023/07/15 06:36:24;;;;;;;8.20;2.80;;;;;;;;;;106875;1276;22513;-81
2023/07/15 06:38:53;;;;;;;8.80;2.90;;;;;;;;;;107037;1256;25227;-84
2023/07/15 06:41:20;;;;;;;6.90;3.00;;;;;;;;;;106935;1276;22519;-87
2023/07/15 06:43:54;;;;;;;4.80;2.10;;;;;;;;;;106951;1275;24326;-83
2023/07/15 06:46:30;;;;;;;5.50;2.50;;;;;;;;;;107368;1276;24380;-84
2023/07/15 06:48:57;;;;;;;5.20;2.20;;;;;;;;;;107005;1257;25111;-83
2023/07/15 06:51:24;;;;;;;5.00;2.10;;;;;;;;;;107177;1275;23926;-81
2023/07/15 06:53:53;;;;;;;7.20;2.60;;;;;;;;;;107111;1275;22720;-85
2023/07/15 06:56:20;;;;;;;8.40;2.10;;;;;;;;;;107107;1275;22494;-85
2023/07/15 06:58:47;;;;;;;5.90;2.50;;;;;;;;;;107266;1274;22520;-85
2023/07/15 07:01:17;;;;;;;8.80;2.40;;;;;;;;;;107214;1274;22525;-80
2023/07/15 07:03:47;;;;;;;6.90;2.30;;;;;;;;;;107216;1274;25468;-80
2023/07/15 07:06:14;;;;;;;8.50;2.70;;;;;;;;;;107242;1274;23896;-80
2023/07/15 07:08:43;;;;;;;4.90;2.40;;;;;;;;;;107187;1275;25265;-87
2023/07/15 07:11:10;;;;;;;6.70;2.40;;;;;;;;;;107115;1275;23008;-81
2023/07/15 07:13:37;;;;;;;6.90;2.10;;;;;;;;;;106982;1274;25324;-82
2023/07/15 07:16:04;;;;;;;9.70;2.60;;;;;;;;;;107188;1274;22669;-81
2023/07/15 07:18:31;;;;;;;8.60;2.60;;;;;;;;;;107277;1251;23254;-82
2023/07/15 07:20:58;;;;;;;6.40;2.70;;;;;;;;;;107130;1274;22484;-84
2023/07/15 07:23:25;;;;;;;5.20;1.90;;;;;;;;;;107235;1274;25353;-80
2023/07/15 07:25:55;;;;;;;5.50;2.40;;;;;;;;;;107158;1274;22520;-87
2023/07/15 07:28:23;;;;;;;6.50;2.00;;;;;;;;;;107220;1273;23873;-79
2023/07/15 07:30:50;;;;;;;6.50;2.50;;;;;;;;;;107272;1256;22515;-86
2023/07/15 07:33:18;;;;;;;5.90;2.40;;;;;;;;;;107195;1275;22542;-81
2023/07/15 07:35:46;;;;;;;6.10;2.30;;;;;;;;;;107200;1274;22518;-80
2023/07/15 07:38:13;;;;;;;6.20;2.10;;;;;;;;;;107217;1275;22535;-81
2023/07/15 07:40:44;;;;;;;8.30;2.50;;;;;;;;;;107106;1256;23064;-85
2023/07/15 07:43:11;;;;;;;6.60;2.60;;;;;;;;;;107278;1273;25303;-84
2023/07/15 07:45:38;;;;;;;10.00;2.60;;;;;;;;;;107241;1274;22500;-84
2023/07/15 07:48:05;;;;;;;6.00;1.90;;;;;;;;;;107223;1274;25233;-82
2023/07/15 07:50:33;;;;;;;6.80;2.20;;;;;;;;;;107123;1261;22517;-82
2023/07/15 07:53:00;;;;;;;5.90;2.00;;;;;;;;;;107194;1275;23894;-79
2023/07/15 07:55:27;;;;;;;7.20;2.50;;;;;;;;;;107125;1275;25214;-84
2023/07/15 07:57:53;;;;;;;5.90;2.60;;;;;;;;;;107163;1275;25319;-80
2023/07/15 08:00:20;;;;;;;4.20;1.90;;;;;;;;;;107195;1274;22517;-80
2023/07/15 08:02:47;;;;;;;5.10;1.80;;;;;;;;;;107146;1273;22630;-84
2023/07/15 08:05:14;;;;;;;6.30;2.50;;;;;;;;;;107261;1274;24209;-80
2023/07/15 08:07:40;;;;;;;6.10;2.80;;;;;;;;;;107001;1274;22602;-84
2023/07/15 08:10:07;;;;;;;6.60;2.40;;;;;;;;;;107173;1256;22488;-82
2023/07/15 08:12:34;;;;;;;5.50;2.50;;;;;;;;;;107230;1275;25274;-81
2023/07/15 08:15:01;;;;;;;6.20;2.40;;;;;;;;;;106938;1266;25601;-87
2023/07/15 08:17:27;;;;;;;5.60;2.10;;;;;;;;;;107104;1275;22628;-84
2023/07/15 08:19:54;;;;;;;8.00;2.80;;;;;;;;;;107174;1251;23867;-84
2023/07/15 08:22:21;;;;;;;10.70;2.60;;;;;;;;;;107064;1251;22520;-86
2023/07/15 08:24:48;;;;;;;6.80;2.10;;;;;;;;;;107164;1274;25238;-84
2023/07/15 08:27:15;;;;;;;8.50;2.10;;;;;;;;;;107223;1273;24225;-80
2023/07/15 08:29:42;;;;;;;7.50;2.30;;;;;;;;;;107234;1274;22518;-80
2023/07/15 08:32:09;;;;;;;4.80;1.80;;;;;;;;;;107166;1256;22514;-85
2023/07/15 08:34:35;;;;;;;4.60;2.40;;;;;;;;;;106905;1275;25311;-83
2023/07/15 08:37:02;;;;;;;6.10;2.50;;;;;;;;;;106961;1275;25344;-83
2023/07/15 08:39:29;;;;;;;6.80;2.80;;;;;;;;;;106937;1275;22845;-84
2023/07/15 08:41:57;;;;;;;6.20;1.80;;;;;;;;;;107214;1253;22523;-85
2023/07/15 08:44:24;;;;;;;5.30;2.30;;;;;;;;;;107229;1274;22520;-82
2023/07/15 08:46:51;;;;;;;4.50;1.90;;;;;;;;;;107197;1251;24170;-83
2023/07/15 08:49:19;;;;;;;7.10;2.30;;;;;;;;;;107226;1274;22629;-84
2023/07/15 08:51:46;;;;;;;7.90;2.50;;;;;;;;;;107215;1274;22528;-80
2023/07/15 08:54:13;;;;;;;5.10;2.40;;;;;;;;;;107189;1275;23857;-85
2023/07/15 08:56:40;;;;;;;3.80;1.60;;;;;;;;;;106911;1275;25328;-84
2023/07/15 08:59:06;;;;;;;5.00;2.10;;;;;;;;;;107206;1275;22479;-82
2023/07/15 09:01:36;;;;;;;10.70;1.90;;;;;;;;;;107103;1256;22536;-82
2023/07/15 09:04:04;;;;;;;3.70;1.90;;;;;;;;;;107212;1274;22517;-85
2023/07/15 09:06:30;;;;;;;6.20;1.70;;;;;;;;;;107156;1274;22522;-81
2023/07/15 09:08:57;;;;;;;6.80;2.30;;;;;;;;;;107156;1274;22514;-80
2023/07/15 09:11:24;;;;;;;4.60;1.80;;;;;;;;;;107188;1256;22639;-87
2023/07/15 09:13:51;;;;;;;5.40;1.70;;;;;;;;;;107224;1275;25204;-84
2023/07/15 09:16:18;;;;;;;5.30;1.60;;;;;;;;;;106961;1274;22527;-83
2023/07/15 09:18:45;;;;;;;9.10;2.30;;;;;;;;;;107163;1253;23506;-84
2023/07/15 09:21:17;;;;;;;5.30;2.20;;;;;;;;;;107160;1251;24169;-85
2023/07/15 09:23:44;;;;;;;5.40;2.10;;;;;;;;;;107214;1274;22463;-86
2023/07/15 09:26:12;;;;;;;5.30;1.90;;;;;;;;;;107114;1274;25473;-84
2023/07/15 09:28:41;;;;;;;6.40;2.10;;;;;;;;;;107268;1274;22594;-81
2023/07/15 09:31:08;;;;;;;4.60;1.80;;;;;;;;;;107171;1254;22657;-86
2023/07/15 09:33:39;;;;;;;6.00;2.10;;;;;;;;;;107190;1275;24250;-80
2023/07/15 09:36:06;;;;;;;6.10;2.40;;;;;;;;;;106984;1275;22521;-81
2023/07/15 09:38:34;;;;;;;5.20;2.20;;;;;;;;;;106957;1275;25319;-79
2023/07/15 09:41:01;;;;;;;5.40;2.00;;;;;;;;;;106926;1275;22730;-86
2023/07/15 09:43:58;;;;;;;5.60;1.80;;;;;;;;;;107208;1255;22521;-81
2023/07/15 09:46:28;;;;;;;4.40;2.20;;;;;;;;;;107009;1274;22516;-81
2023/07/15 09:48:56;;;;;;;3.50;1.80;;;;;;;;;;107194;1274;22496;-81
2023/07/15 09:51:23;;;;;;;4.10;1.80;;;;;;;;;;107189;1274;24451;-79
2023/07/15 09:53:51;;;;;;;5.00;2.20;;;;;;;;;;106945;1259;22730;-86
2023/07/15 09:56:31;;;;;;;4.10;1.80;;;;;;;;;;107003;1275;25509;-82
2023/07/15 09:59:02;;;;;;;6.50;2.40;;;;;;;;;;106927;1275;25226;-81
2023/07/15 10:01:35;;;;;;;6.90;2.20;;;;;;;;;;107147;1275;24205;-80
2023/07/15 10:04:09;;;;;;;5.80;2.30;;;;;;;;;;107040;1257;23204;-81
2023/07/15 10:06:37;;;;;;;4.60;1.90;;;;;;;;;;107212;1274;22524;-80
2023/07/15 10:09:04;;;;;;;6.30;2.20;;;;;;;;;;107255;1274;24196;-83
2023/07/15 10:11:33;;;;;;;6.60;2.50;;;;;;;;;;107102;1274;26475;-84
2023/07/15 10:14:00;;;;;;;4.50;2.20;;;;;;;;;;107200;1254;22498;-81
2023/07/15 10:16:27;;;;;;;6.80;1.90;;;;;;;;;;107104;1275;23902;-80
2023/07/15 10:18:55;;;;;;;4.90;2.30;;;;;;;;;;107106;1275;25315;-84
2023/07/15 10:21:22;;;;;;;5.60;1.70;;;;;;;;;;107205;1275;24036;-80
2023/07/15 10:23:48;;;;;;;6.70;2.30;;;;;;;;;;107003;1258;22523;-83
2023/07/15 10:26:19;;;;;;;5.80;2.30;;;;;;;;;;107154;1274;25222;-79
2023/07/15 10:28:51;;;;;;;4.90;1.90;;;;;;;;;;107178;1274;24249;-79
2023/07/15 10:31:22;;;;;;;3.80;1.80;;;;;;;;;;107190;1274;22520;-84
2023/07/15 10:33:55;;;;;;;6.70;2.20;;;;;;;;;;107041;1261;22585;-84
2023/07/15 10:36:42;;;;;;;6.30;2.20;;;;;;;;;;107097;1275;24209;-84
2023/07/15 10:39:10;;;;;;;7.70;2.20;;;;;;;;;;107215;1263;26433;-82
2023/07/15 10:41:45;;;;;;;4.50;1.80;;;;;;;;;;106951;1275;22505;-82
2023/07/15 10:44:15;;;;;;;4.50;2.10;;;;;;;;;;106978;1251;22514;-85
2023/07/15 10:46:55;;;;;;;8.20;1.80;;;;;;;;;;107197;1274;22527;-85
2023/07/15 10:49:22;;;;;;;4.40;1.80;;;;;;;;;;107144;1274;22994;-85
2023/07/15 10:51:52;;;;;;;5.10;1.70;;;;;;;;;;107191;1274;22524;-77
2023/07/15 10:54:20;;;;;;;6.10;2.70;;;;;;;;;;107032;1258;22523;-81
2023/07/15 10:56:47;;;;;;;4.50;1.80;;;;;;;;;;107180;1275;25502;-78
2023/07/15 10:59:14;;;;;;;5.20;2.30;;;;;;;;;;107137;1275;22517;-86
2023/07/15 11:01:45;;;;;;;5.50;2.20;;;;;;;;;;106926;1274;24256;-82
2023/07/15 11:04:12;;;;;;;6.40;2.60;;;;;;;;;;104698;1274;3387336;-84
2023/07/15 11:06:38;;;;;;;6.20;2.10;;;;;;;;;;107205;1274;22780;-81
2023/07/15 11:09:15;;;;;;;7.60;2.30;;;;;;;;;;107140;1274;25393;-80
2023/07/15 11:11:42;;;;;;;8.40;2.00;;;;;;;;;;107436;1269;25334;-82
2023/07/15 11:14:19;;;;;;;6.30;2.30;;;;;;;;;;107159;1256;22643;-81
2023/07/15 11:16:46;;;;;;;5.40;2.30;;;;;;;;;;107170;1275;22523;-80
2023/07/15 11:19:16;;;;;;;6.00;2.20;;;;;;;;;;106987;1275;24374;-86
2023/07/15 11:21:45;;;;;;;6.40;2.50;;;;;;;;;;107106;1275;25224;-84
2023/07/15 11:24:12;;;;;;;6.10;2.40;;;;;;;;;;107047;1256;22520;-80
2023/07/15 11:26:40;;;;;;;4.50;2.20;;;;;;;;;;107176;1267;22527;-82
2023/07/15 11:29:14;;;;;;;4.50;2.20;;;;;;;;;;107200;1266;22497;-80
2023/07/15 11:31:42;;;;;;;5.20;2.20;;;;;;;;;;107191;1269;22517;-82
2023/07/15 11:34:10;;;;;;;5.50;1.90;;;;;;;;;;107189;1257;24024;-83
2023/07/15 11:36:37;;;;;;;4.70;2.00;;;;;;;;;;106983;1275;24260;-78
2023/07/15 11:39:05;;;;;;;5.40;2.40;;;;;;;;;;106973;1275;22526;-85
2023/07/15 11:41:33;;;;;;;5.20;2.40;;;;;;;;;;106982;1275;22787;-86
2023/07/15 11:44:00;;;;;;;5.80;2.30;;;;;;;;;;107160;1251;22925;-80
2023/07/15 11:46:29;;;;;;;5.40;2.20;;;;;;;;;;107226;1274;22599;-80
2023/07/15 11:48:59;;;;;;;5.20;2.30;;;;;;;;;;106998;1274;22545;-78
2023/07/15 11:51:26;;;;;;;5.50;2.20;;;;;;;;;;107204;1251;22528;-81
2023/07/15 11:53:55;;;;;;;4.70;2.10;;;;;;;;;;106977;1274;25260;-80
2023/07/15 11:56:42;;;;;;;5.00;2.40;;;;;;;;;;106927;1275;22527;-83
2023/07/15 11:59:11;;;;;;;6.90;2.30;;;;;;;;;;107023;1275;24334;-80
2023/07/15 12:01:38;;;;;;;4.80;2.10;;;;;;;;;;107045;1275;22508;-82
2023/07/15 12:04:15;;;;;;;4.70;2.30;;;;;;;;;;107173;1252;25472;-81
2023/07/15 12:06:49;;;;;;;5.70;2.40;;;;;;;;;;107187;1269;25340;-84
2023/07/15 12:09:16;;;;;;;5.00;2.00;;;;;;;;;;107142;1274;22520;-85
2023/07/15 12:11:43;;;;;;;7.90;2.20;;;;;;;;;;107190;1274;22521;-85
2023/07/15 12:14:10;;;;;;;5.80;2.70;;;;;;;;;;107089;1274;22512;-78
2023/07/15 12:16:37;;;;;;;5.80;2.20;;;;;;;;;;106888;1263;22577;-81
2023/07/15 12:19:05;;;;;;;4.90;2.30;;;;;;;;;;106970;1275;24336;-84
2023/07/15 12:21:32;;;;;;;5.20;2.10;;;;;;;;;;106970;1275;24196;-78
2023/07/15 12:23:59;;;;;;;3.80;1.80;;;;;;;;;;106961;1274;22657;-79
2023/07/15 12:26:25;;;;;;;4.10;1.60;;;;;;;;;;107015;1267;22612;-80
2023/07/15 12:28:52;;;;;;;5.40;1.90;;;;;;;;;;107205;1274;22523;-81
2023/07/15 12:31:19;;;;;;;5.50;2.00;;;;;;;;;;107204;1274;25265;-81
2023/07/15 12:33:46;;;;;;;4.80;1.90;;;;;;;;;;107198;1274;25357;-80
2023/07/15 12:36:15;;;;;;;7.60;2.10;;;;;;;;;;106941;1259;22535;-81
2023/07/15 12:38:41;;;;;;;4.60;1.90;;;;;;;;;;106991;1275;25373;-83
2023/07/15 12:41:09;;;;;;;4.40;1.80;;;;;;;;;;107069;1275;22523;-83
2023/07/15 12:43:36;;;;;;;5.00;2.20;;;;;;;;;;107082;1275;22504;-83
2023/07/15 12:46:03;;;;;;;4.90;1.70;;;;;;;;;;107168;1274;22523;-83
2023/07/15 12:48:30;;;;;;;6.90;2.20;;;;;;;;;;107161;1274;24728;-87
2023/07/15 12:50:57;;;;;;;6.90;2.20;;;;;;;;;;107233;1273;22598;-79
2023/07/15 12:53:24;;;;;;;5.30;2.00;;;;;;;;;;107207;1274;24202;-82
2023/07/15 12:55:53;;;;;;;6.20;2.60;;;;;;;;;;107190;1256;22534;-85
2023/07/15 12:58:21;;;;;;;3.60;1.60;;;;;;;;;;107034;1275;22648;-80
2023/07/15 13:00:48;;;;;;;4.60;1.70;;;;;;;;;;106962;1275;22532;-81
2023/07/15 13:03:15;;;;;;;4.70;2.40;;;;;;;;;;106981;1275;24191;-79
2023/07/15 13:05:42;;;;;;;3.90;2.10;;;;;;;;;;107007;1256;22535;-80
2023/07/15 13:08:10;;;;;;;4.00;2.10;;;;;;;;;;107210;1274;22509;-80
2023/07/15 13:10:37;;;;;;;7.90;2.10;;;;;;;;;;107176;1274;22537;-79
2023/07/15 13:13:04;;;;;;;4.00;1.50;;;;;;;;;;107186;1274;22519;-80
2023/07/15 13:15:31;;;;;;;6.40;1.70;;;;;;;;;;107219;1263;22528;-84
2023/07/15 13:17:57;;;;;;;4.90;2.30;;;;;;;;;;106915;1275;25344;-80
2023/07/15 13:20:24;;;;;;;5.00;1.90;;;;;;;;;;106983;1275;22537;-86
2023/07/15 13:22:51;;;;;;;5.40;1.90;;;;;;;;;;106891;1275;22535;-83
2023/07/15 13:25:18;;;;;;;3.80;1.70;;;;;;;;;;106998;1275;24261;-81
2023/07/15 13:27:44;;;;;;;6.00;2.10;;;;;;;;;;107092;1261;23867;-80
2023/07/15 13:30:11;;;;;;;4.30;1.90;;;;;;;;;;107200;1274;25246;-81
2023/07/15 13:32:38;;;;;;;4.70;1.90;;;;;;;;;;107139;1274;25453;-81
2023/07/15 13:35:05;;;;;;;5.50;1.80;;;;;;;;;;107186;1268;22524;-85
2023/07/15 13:37:32;;;;;;;4.50;1.80;;;;;;;;;;106949;1272;22526;-85
2023/07/15 13:39:59;;;;;;;4.90;1.70;;;;;;;;;;106953;1275;22798;-79
2023/07/15 13:42:25;;;;;;;3.70;1.90;;;;;;;;;;107076;1275;22618;-85
2023/07/15 13:44:53;;;;;;;3.20;1.50;;;;;;;;;;107128;1275;25281;-79
2023/07/15 13:47:19;;;;;;;4.80;2.00;;;;;;;;;;106948;1259;24253;-80
2023/07/15 13:49:46;;;;;;;4.20;1.80;;;;;;;;;;106937;1276;25226;-82
2023/07/15 13:52:13;;;;;;;5.50;2.00;;;;;;;;;;106986;1275;22540;-82
2023/07/15 13:54:39;;;;;;;5.60;2.30;;;;;;;;;;106948;1276;22541;-80
2023/07/15 13:57:06;;;;;;;5.60;2.50;;;;;;;;;;106956;1259;22487;-83
2023/07/15 13:59:33;;;;;;;4.60;2.00;;;;;;;;;;106915;1276;22550;-82
2023/07/15 14:02:00;;;;;;;4.60;2.20;;;;;;;;;;106989;1276;22519;-81
2023/07/15 14:04:27;;;;;;;4.90;2.30;;;;;;;;;;106926;1276;22528;-81
2023/07/15 14:06:54;;;;;;;10.90;2.30;;;;;;;;;;106921;1270;22542;-81
2023/07/15 14:09:20;;;;;;;7.10;2.30;;;;;;;;;;106991;1276;25322;-80
2023/07/15 14:11:47;;;;;;;5.40;2.00;;;;;;;;;;107007;1276;25265;-80
2023/07/15 14:14:15;;;;;;;4.50;2.20;;;;;;;;;;106974;1276;22529;-79
2023/07/15 14:16:42;;;;;;;4.50;2.50;;;;;;;;;;106986;1254;25271;-82
2023/07/15 14:19:08;;;;;;;5.90;2.20;;;;;;;;;;106904;1276;22527;-82
2023/07/15 14:21:35;;;;;;;5.10;2.20;;;;;;;;;;106971;1276;22536;-82
2023/07/15 14:24:03;;;;;;;5.20;2.10;;;;;;;;;;106905;1276;24229;-83
2023/07/15 14:26:31;;;;;;;4.60;2.20;;;;;;;;;;106971;1276;22653;-83
2023/07/15 14:28:58;;;;;;;4.40;1.60;;;;;;;;;;106976;1259;23928;-80
2023/07/15 14:31:25;;;;;;;10.60;2.70;;;;;;;;;;106976;1276;22526;-87
2023/07/15 14:33:55;;;;;;;5.60;2.30;;;;;;;;;;106884;1276;22527;-84